sensor_id;sensor_type;location;lat;lon;timestamp;P1;durP1;ratioP1;P2;durP2;ratioP2
19951;SDS011;10137;49.406;19.484;2022-12-29T00:01:10;4.87;;;2.60;;
19951;SDS011;10137;49.406;19.484;2022-12-29T00:03:38;5.60;;;3.10;;
19951;SDS011;10137;49.406;19.484;2022-12-29T00:06:06;7.07;;;3.90;;
19951;SDS011;10137;49.406;19.484;2022-12-29T00:08:34;5.10;;;3.10;;
19951;SDS011;10137;49.406;19.484;2022-12-29T00:11:09;5.80;;;2.83;;
19951;SDS011;10137;49.406;19.484;2022-12-29T00:13:40;4.53;;;2.97;;
19951;SDS011;10137;49.406;19.484;2022-12-29T00:16:26;7.23;;;3.03;;
19951;SDS011;10137;49.406;19.484;2022-12-29T00:18:55;5.23;;;3.00;;
19951;SDS011;10137;49.406;19.484;2022-12-29T00:21:23;4.70;;;3.10;;
19951;SDS011;10137;49.406;19.484;2022-12-29T00:24:12;5.07;;;3.10;;
19951;SDS011;10137;49.406;19.484;2022-12-29T00:27:08;5.07;;;3.23;;
19951;SDS011;10137;49.406;19.484;2022-12-29T00:29:57;5.37;;;3.00;;
19951;SDS011;10137;49.406;19.484;2022-12-29T00:32:43;6.33;;;3.60;;
19951;SDS011;10137;49.406;19.484;2022-12-29T00:35:29;6.70;;;3.80;;
19951;SDS011;10137;49.406;19.484;2022-12-29T00:38:02;7.33;;;4.20;;
19951;SDS011;10137;49.406;19.484;2022-12-29T00:40:49;7.77;;;4.07;;
19951;SDS011;10137;49.406;19.484;2022-12-29T00:43:35;7.63;;;3.73;;
19951;SDS011;10137;49.406;19.484;2022-12-29T00:46:22;7.07;;;3.27;;
19951;SDS011;10137;49.406;19.484;2022-12-29T00:48:50;7.23;;;3.40;;
19951;SDS011;10137;49.406;19.484;2022-12-29T00:51:35;6.97;;;3.33;;
19951;SDS011;10137;49.406;19.484;2022-12-29T00:54:03;8.70;;;3.40;;
19951;SDS011;10137;49.406;19.484;2022-12-29T00:56:34;4.77;;;3.30;;
19951;SDS011;10137;49.406;19.484;2022-12-29T00:59:02;5.73;;;3.60;;
19951;SDS011;10137;49.406;19.484;2022-12-29T01:01:33;6.43;;;3.60;;
19951;SDS011;10137;49.406;19.484;2022-12-29T01:04:02;4.27;;;3.07;;
19951;SDS011;10137;49.406;19.484;2022-12-29T01:06:30;7.20;;;3.30;;
19951;SDS011;10137;49.406;19.484;2022-12-29T01:08:58;4.70;;;3.37;;
19951;SDS011;10137;49.406;19.484;2022-12-29T01:11:44;8.87;;;3.20;;
19951;SDS011;10137;49.406;19.484;2022-12-29T01:14:12;4.27;;;3.10;;
19951;SDS011;10137;49.406;19.484;2022-12-29T01:16:42;6.17;;;3.27;;
19951;SDS011;10137;49.406;19.484;2022-12-29T01:19:11;7.27;;;3.37;;
19951;SDS011;10137;49.406;19.484;2022-12-29T01:21:41;6.27;;;3.10;;
19951;SDS011;10137;49.406;19.484;2022-12-29T01:24:09;4.60;;;3.00;;
19951;SDS011;10137;49.406;19.484;2022-12-29T01:26:37;4.77;;;3.00;;
19951;SDS011;10137;49.406;19.484;2022-12-29T01:29:08;6.30;;;3.20;;
19951;SDS011;10137;49.406;19.484;2022-12-29T01:31:37;4.77;;;3.07;;
19951;SDS011;10137;49.406;19.484;2022-12-29T01:34:07;7.63;;;3.13;;
19951;SDS011;10137;49.406;19.484;2022-12-29T01:36:35;4.13;;;2.93;;
19951;SDS011;10137;49.406;19.484;2022-12-29T01:39:03;5.40;;;3.00;;
19951;SDS011;10137;49.406;19.484;2022-12-29T01:41:31;5.53;;;3.10;;
19951;SDS011;10137;49.406;19.484;2022-12-29T01:43:59;5.80;;;3.13;;
19951;SDS011;10137;49.406;19.484;2022-12-29T01:46:29;4.20;;;2.80;;
19951;SDS011;10137;49.406;19.484;2022-12-29T01:49:03;5.53;;;3.17;;
19951;SDS011;10137;49.406;19.484;2022-12-29T01:51:42;5.47;;;3.10;;
19951;SDS011;10137;49.406;19.484;2022-12-29T01:54:13;7.40;;;3.00;;
19951;SDS011;10137;49.406;19.484;2022-12-29T01:56:48;5.80;;;2.90;;
19951;SDS011;10137;49.406;19.484;2022-12-29T01:59:20;7.17;;;3.03;;
19951;SDS011;10137;49.406;19.484;2022-12-29T02:01:53;6.93;;;2.90;;
19951;SDS011;10137;49.406;19.484;2022-12-29T02:04:22;4.23;;;2.53;;
19951;SDS011;10137;49.406;19.484;2022-12-29T02:06:55;7.80;;;3.00;;
19951;SDS011;10137;49.406;19.484;2022-12-29T02:09:30;5.57;;;2.57;;
19951;SDS011;10137;49.406;19.484;2022-12-29T02:11:58;6.03;;;3.10;;
19951;SDS011;10137;49.406;19.484;2022-12-29T02:14:28;3.67;;;2.30;;
19951;SDS011;10137;49.406;19.484;2022-12-29T02:17:01;7.30;;;2.93;;
19951;SDS011;10137;49.406;19.484;2022-12-29T02:22:48;5.57;;;2.63;;
19951;SDS011;10137;49.406;19.484;2022-12-29T02:28:24;3.53;;;2.47;;
19951;SDS011;10137;49.406;19.484;2022-12-29T02:31:18;4.63;;;2.40;;
19951;SDS011;10137;49.406;19.484;2022-12-29T02:33:57;6.90;;;2.57;;
19951;SDS011;10137;49.406;19.484;2022-12-29T02:36:36;5.20;;;2.77;;
19951;SDS011;10137;49.406;19.484;2022-12-29T02:39:12;3.47;;;2.40;;
19951;SDS011;10137;49.406;19.484;2022-12-29T02:41:52;4.30;;;2.43;;
19951;SDS011;10137;49.406;19.484;2022-12-29T02:44:32;3.97;;;2.27;;
19951;SDS011;10137;49.406;19.484;2022-12-29T02:47:19;4.63;;;2.60;;
19951;SDS011;10137;49.406;19.484;2022-12-29T02:49:53;4.17;;;2.60;;
19951;SDS011;10137;49.406;19.484;2022-12-29T02:52:30;3.33;;;2.40;;
19951;SDS011;10137;49.406;19.484;2022-12-29T02:55:02;5.47;;;2.67;;
19951;SDS011;10137;49.406;19.484;2022-12-29T02:57:30;4.37;;;2.50;;
19951;SDS011;10137;49.406;19.484;2022-12-29T03:00:02;3.73;;;2.67;;
19951;SDS011;10137;49.406;19.484;2022-12-29T03:02:50;4.93;;;2.97;;
19951;SDS011;10137;49.406;19.484;2022-12-29T03:05:53;4.10;;;2.50;;
19951;SDS011;10137;49.406;19.484;2022-12-29T03:08:34;4.03;;;2.07;;
19951;SDS011;10137;49.406;19.484;2022-12-29T03:11:13;3.63;;;2.50;;
19951;SDS011;10137;49.406;19.484;2022-12-29T03:13:56;4.47;;;2.77;;
19951;SDS011;10137;49.406;19.484;2022-12-29T03:16:47;3.60;;;2.30;;
19951;SDS011;10137;49.406;19.484;2022-12-29T03:19:28;5.20;;;2.87;;
19951;SDS011;10137;49.406;19.484;2022-12-29T03:22:00;4.37;;;2.23;;
19951;SDS011;10137;49.406;19.484;2022-12-29T03:24:49;3.43;;;2.37;;
19951;SDS011;10137;49.406;19.484;2022-12-29T03:27:19;4.67;;;2.97;;
19951;SDS011;10137;49.406;19.484;2022-12-29T03:29:54;5.27;;;2.83;;
19951;SDS011;10137;49.406;19.484;2022-12-29T03:32:25;5.93;;;2.97;;
19951;SDS011;10137;49.406;19.484;2022-12-29T03:35:00;4.80;;;2.73;;
19951;SDS011;10137;49.406;19.484;2022-12-29T03:37:31;4.10;;;2.70;;
19951;SDS011;10137;49.406;19.484;2022-12-29T03:40:03;5.10;;;2.90;;
19951;SDS011;10137;49.406;19.484;2022-12-29T03:42:32;6.40;;;2.77;;
19951;SDS011;10137;49.406;19.484;2022-12-29T03:45:04;3.97;;;2.73;;
19951;SDS011;10137;49.406;19.484;2022-12-29T03:47:36;6.20;;;3.23;;
19951;SDS011;10137;49.406;19.484;2022-12-29T03:50:06;4.30;;;3.00;;
19951;SDS011;10137;49.406;19.484;2022-12-29T03:52:34;6.07;;;2.80;;
19951;SDS011;10137;49.406;19.484;2022-12-29T03:55:03;6.73;;;2.70;;
19951;SDS011;10137;49.406;19.484;2022-12-29T03:57:32;6.73;;;2.77;;
19951;SDS011;10137;49.406;19.484;2022-12-29T04:00:00;5.50;;;3.00;;
19951;SDS011;10137;49.406;19.484;2022-12-29T04:02:28;4.17;;;2.60;;
19951;SDS011;10137;49.406;19.484;2022-12-29T04:04:55;3.43;;;2.30;;
19951;SDS011;10137;49.406;19.484;2022-12-29T04:07:25;4.83;;;2.87;;
19951;SDS011;10137;49.406;19.484;2022-12-29T04:09:53;5.27;;;2.60;;
19951;SDS011;10137;49.406;19.484;2022-12-29T04:12:21;4.87;;;2.50;;
19951;SDS011;10137;49.406;19.484;2022-12-29T04:14:50;5.50;;;2.70;;
19951;SDS011;10137;49.406;19.484;2022-12-29T04:17:18;5.10;;;2.80;;
19951;SDS011;10137;49.406;19.484;2022-12-29T04:19:48;5.60;;;2.87;;
19951;SDS011;10137;49.406;19.484;2022-12-29T04:22:17;5.17;;;2.80;;
19951;SDS011;10137;49.406;19.484;2022-12-29T04:24:46;4.57;;;3.13;;
19951;SDS011;10137;49.406;19.484;2022-12-29T04:27:17;4.67;;;2.93;;
19951;SDS011;10137;49.406;19.484;2022-12-29T04:29:45;4.93;;;2.70;;
19951;SDS011;10137;49.406;19.484;2022-12-29T04:32:13;4.57;;;2.97;;
19951;SDS011;10137;49.406;19.484;2022-12-29T04:34:41;6.17;;;2.63;;
19951;SDS011;10137;49.406;19.484;2022-12-29T04:37:10;4.50;;;2.60;;
19951;SDS011;10137;49.406;19.484;2022-12-29T04:39:39;4.40;;;2.97;;
19951;SDS011;10137;49.406;19.484;2022-12-29T04:42:09;5.37;;;2.73;;
19951;SDS011;10137;49.406;19.484;2022-12-29T04:44:37;4.33;;;2.93;;
19951;SDS011;10137;49.406;19.484;2022-12-29T04:47:05;6.20;;;3.10;;
19951;SDS011;10137;49.406;19.484;2022-12-29T04:49:33;4.67;;;2.93;;
19951;SDS011;10137;49.406;19.484;2022-12-29T04:52:02;5.87;;;2.87;;
19951;SDS011;10137;49.406;19.484;2022-12-29T04:54:30;4.77;;;2.90;;
19951;SDS011;10137;49.406;19.484;2022-12-29T04:57:00;4.93;;;2.70;;
19951;SDS011;10137;49.406;19.484;2022-12-29T04:59:30;7.03;;;2.90;;
19951;SDS011;10137;49.406;19.484;2022-12-29T05:02:02;4.37;;;2.90;;
19951;SDS011;10137;49.406;19.484;2022-12-29T05:04:30;4.67;;;2.67;;
19951;SDS011;10137;49.406;19.484;2022-12-29T05:06:58;4.90;;;3.10;;
19951;SDS011;10137;49.406;19.484;2022-12-29T05:09:27;6.83;;;3.30;;
19951;SDS011;10137;49.406;19.484;2022-12-29T05:11:56;7.23;;;2.70;;
19951;SDS011;10137;49.406;19.484;2022-12-29T05:14:24;6.37;;;3.50;;
19951;SDS011;10137;49.406;19.484;2022-12-29T05:20:15;6.93;;;3.07;;
19951;SDS011;10137;49.406;19.484;2022-12-29T05:22:43;6.27;;;2.90;;
19951;SDS011;10137;49.406;19.484;2022-12-29T05:25:11;4.40;;;3.30;;
19951;SDS011;10137;49.406;19.484;2022-12-29T05:27:39;5.83;;;3.23;;
19951;SDS011;10137;49.406;19.484;2022-12-29T05:30:08;4.83;;;3.20;;
19951;SDS011;10137;49.406;19.484;2022-12-29T05:32:37;6.63;;;3.50;;
19951;SDS011;10137;49.406;19.484;2022-12-29T05:35:05;5.70;;;3.80;;
19951;SDS011;10137;49.406;19.484;2022-12-29T05:37:35;8.17;;;4.43;;
19951;SDS011;10137;49.406;19.484;2022-12-29T05:40:04;6.10;;;3.60;;
19951;SDS011;10137;49.406;19.484;2022-12-29T05:42:34;8.27;;;3.83;;
19951;SDS011;10137;49.406;19.484;2022-12-29T05:45:05;6.60;;;4.43;;
19951;SDS011;10137;49.406;19.484;2022-12-29T05:47:34;5.33;;;3.47;;
19951;SDS011;10137;49.406;19.484;2022-12-29T05:50:03;6.97;;;3.43;;
19951;SDS011;10137;49.406;19.484;2022-12-29T05:52:45;6.20;;;3.57;;
19951;SDS011;10137;49.406;19.484;2022-12-29T05:55:15;8.13;;;3.80;;
19951;SDS011;10137;49.406;19.484;2022-12-29T05:57:44;6.17;;;3.80;;
19951;SDS011;10137;49.406;19.484;2022-12-29T06:00:14;7.50;;;3.60;;
19951;SDS011;10137;49.406;19.484;2022-12-29T06:02:46;7.73;;;3.73;;
19951;SDS011;10137;49.406;19.484;2022-12-29T06:05:15;7.67;;;4.00;;
19951;SDS011;10137;49.406;19.484;2022-12-29T06:07:45;7.17;;;4.33;;
19951;SDS011;10137;49.406;19.484;2022-12-29T06:10:15;6.70;;;3.90;;
19951;SDS011;10137;49.406;19.484;2022-12-29T06:12:46;7.33;;;4.30;;
19951;SDS011;10137;49.406;19.484;2022-12-29T06:15:13;7.80;;;3.73;;
19951;SDS011;10137;49.406;19.484;2022-12-29T06:17:41;7.50;;;3.97;;
19951;SDS011;10137;49.406;19.484;2022-12-29T06:20:09;12.00;;;4.00;;
19951;SDS011;10137;49.406;19.484;2022-12-29T06:22:38;10.33;;;5.03;;
19951;SDS011;10137;49.406;19.484;2022-12-29T06:25:08;8.43;;;4.30;;
19951;SDS011;10137;49.406;19.484;2022-12-29T06:27:37;9.00;;;3.80;;
19951;SDS011;10137;49.406;19.484;2022-12-29T06:30:06;7.77;;;4.30;;
19951;SDS011;10137;49.406;19.484;2022-12-29T06:32:34;8.03;;;4.17;;
19951;SDS011;10137;49.406;19.484;2022-12-29T06:35:02;6.47;;;4.13;;
19951;SDS011;10137;49.406;19.484;2022-12-29T06:37:32;7.23;;;4.57;;
19951;SDS011;10137;49.406;19.484;2022-12-29T06:40:00;9.40;;;4.43;;
19951;SDS011;10137;49.406;19.484;2022-12-29T06:42:30;11.97;;;4.77;;
19951;SDS011;10137;49.406;19.484;2022-12-29T06:45:00;5.83;;;3.80;;
19951;SDS011;10137;49.406;19.484;2022-12-29T06:47:28;6.47;;;4.03;;
19951;SDS011;10137;49.406;19.484;2022-12-29T06:49:56;6.93;;;4.20;;
19951;SDS011;10137;49.406;19.484;2022-12-29T06:52:24;5.97;;;3.90;;
19951;SDS011;10137;49.406;19.484;2022-12-29T06:54:53;6.77;;;3.83;;
19951;SDS011;10137;49.406;19.484;2022-12-29T06:57:22;6.03;;;4.00;;
19951;SDS011;10137;49.406;19.484;2022-12-29T06:59:55;6.27;;;3.83;;
19951;SDS011;10137;49.406;19.484;2022-12-29T07:02:23;7.10;;;4.13;;
19951;SDS011;10137;49.406;19.484;2022-12-29T07:04:51;6.07;;;3.97;;
19951;SDS011;10137;49.406;19.484;2022-12-29T07:07:21;7.97;;;4.47;;
19951;SDS011;10137;49.406;19.484;2022-12-29T07:09:49;8.27;;;4.30;;
19951;SDS011;10137;49.406;19.484;2022-12-29T07:12:17;7.03;;;4.53;;
19951;SDS011;10137;49.406;19.484;2022-12-29T07:14:45;7.90;;;4.43;;
19951;SDS011;10137;49.406;19.484;2022-12-29T07:17:14;8.27;;;4.40;;
19951;SDS011;10137;49.406;19.484;2022-12-29T07:19:42;6.80;;;4.47;;
19951;SDS011;10137;49.406;19.484;2022-12-29T07:22:11;8.73;;;4.13;;
19951;SDS011;10137;49.406;19.484;2022-12-29T07:24:38;6.23;;;3.70;;
19951;SDS011;10137;49.406;19.484;2022-12-29T07:27:06;5.97;;;3.73;;
19951;SDS011;10137;49.406;19.484;2022-12-29T07:29:37;8.17;;;4.70;;
19951;SDS011;10137;49.406;19.484;2022-12-29T07:32:05;7.97;;;4.20;;
19951;SDS011;10137;49.406;19.484;2022-12-29T07:34:36;9.53;;;4.37;;
19951;SDS011;10137;49.406;19.484;2022-12-29T07:37:06;7.67;;;4.77;;
19951;SDS011;10137;49.406;19.484;2022-12-29T07:39:34;7.77;;;3.87;;
19951;SDS011;10137;49.406;19.484;2022-12-29T07:42:01;6.87;;;4.03;;
19951;SDS011;10137;49.406;19.484;2022-12-29T07:44:30;9.70;;;5.40;;
19951;SDS011;10137;49.406;19.484;2022-12-29T07:46:57;7.10;;;4.20;;
19951;SDS011;10137;49.406;19.484;2022-12-29T07:49:26;9.70;;;4.80;;
19951;SDS011;10137;49.406;19.484;2022-12-29T07:51:56;11.17;;;4.70;;
19951;SDS011;10137;49.406;19.484;2022-12-29T07:54:23;7.03;;;4.20;;
19951;SDS011;10137;49.406;19.484;2022-12-29T07:56:53;7.00;;;4.33;;
19951;SDS011;10137;49.406;19.484;2022-12-29T07:59:21;6.43;;;4.10;;
19951;SDS011;10137;49.406;19.484;2022-12-29T08:01:50;6.47;;;4.00;;
19951;SDS011;10137;49.406;19.484;2022-12-29T08:04:18;8.00;;;4.00;;
19951;SDS011;10137;49.406;19.484;2022-12-29T08:06:46;8.83;;;4.33;;
19951;SDS011;10137;49.406;19.484;2022-12-29T08:09:16;12.07;;;4.57;;
19951;SDS011;10137;49.406;19.484;2022-12-29T08:11:44;6.70;;;4.20;;
19951;SDS011;10137;49.406;19.484;2022-12-29T08:14:12;11.47;;;5.67;;
19951;SDS011;10137;49.406;19.484;2022-12-29T08:16:40;12.93;;;5.93;;
19951;SDS011;10137;49.406;19.484;2022-12-29T08:19:09;7.67;;;4.50;;
19951;SDS011;10137;49.406;19.484;2022-12-29T08:21:38;10.47;;;5.10;;
19951;SDS011;10137;49.406;19.484;2022-12-29T08:24:07;9.77;;;5.53;;
19951;SDS011;10137;49.406;19.484;2022-12-29T08:26:37;11.43;;;5.30;;
19951;SDS011;10137;49.406;19.484;2022-12-29T08:29:05;11.83;;;6.17;;
19951;SDS011;10137;49.406;19.484;2022-12-29T08:31:34;13.10;;;7.30;;
19951;SDS011;10137;49.406;19.484;2022-12-29T08:34:01;13.33;;;7.83;;
19951;SDS011;10137;49.406;19.484;2022-12-29T08:36:29;11.13;;;6.77;;
19951;SDS011;10137;49.406;19.484;2022-12-29T08:38:57;9.90;;;5.73;;
19951;SDS011;10137;49.406;19.484;2022-12-29T08:41:25;7.47;;;4.53;;
19951;SDS011;10137;49.406;19.484;2022-12-29T08:43:55;10.80;;;5.20;;
19951;SDS011;10137;49.406;19.484;2022-12-29T08:46:23;11.77;;;4.73;;
19951;SDS011;10137;49.406;19.484;2022-12-29T08:48:51;9.03;;;4.97;;
19951;SDS011;10137;49.406;19.484;2022-12-29T08:51:20;10.50;;;4.87;;
19951;SDS011;10137;49.406;19.484;2022-12-29T08:53:49;10.37;;;4.50;;
19951;SDS011;10137;49.406;19.484;2022-12-29T08:56:17;7.50;;;4.33;;
19951;SDS011;10137;49.406;19.484;2022-12-29T08:58:45;5.80;;;4.13;;
19951;SDS011;10137;49.406;19.484;2022-12-29T09:01:15;9.63;;;4.87;;
19951;SDS011;10137;49.406;19.484;2022-12-29T09:03:43;8.50;;;4.47;;
19951;SDS011;10137;49.406;19.484;2022-12-29T09:06:12;9.07;;;4.57;;
19951;SDS011;10137;49.406;19.484;2022-12-29T09:08:41;9.00;;;4.70;;
19951;SDS011;10137;49.406;19.484;2022-12-29T09:11:11;13.10;;;5.70;;
19951;SDS011;10137;49.406;19.484;2022-12-29T09:13:42;12.30;;;6.27;;
19951;SDS011;10137;49.406;19.484;2022-12-29T09:16:10;11.63;;;6.10;;
19951;SDS011;10137;49.406;19.484;2022-12-29T09:18:42;10.33;;;5.80;;
19951;SDS011;10137;49.406;19.484;2022-12-29T09:21:11;9.80;;;5.90;;
19951;SDS011;10137;49.406;19.484;2022-12-29T09:23:41;11.87;;;5.67;;
19951;SDS011;10137;49.406;19.484;2022-12-29T09:26:10;7.70;;;5.00;;
19951;SDS011;10137;49.406;19.484;2022-12-29T09:28:38;10.13;;;5.30;;
19951;SDS011;10137;49.406;19.484;2022-12-29T09:31:10;10.97;;;5.70;;
19951;SDS011;10137;49.406;19.484;2022-12-29T09:33:41;9.20;;;5.30;;
19951;SDS011;10137;49.406;19.484;2022-12-29T09:36:10;8.90;;;5.50;;
19951;SDS011;10137;49.406;19.484;2022-12-29T09:38:38;9.00;;;5.50;;
19951;SDS011;10137;49.406;19.484;2022-12-29T09:41:06;13.50;;;6.30;;
19951;SDS011;10137;49.406;19.484;2022-12-29T09:43:52;9.43;;;5.83;;
19951;SDS011;10137;49.406;19.484;2022-12-29T09:47:02;12.37;;;5.83;;
19951;SDS011;10137;49.406;19.484;2022-12-29T09:49:33;12.23;;;6.60;;
19951;SDS011;10137;49.406;19.484;2022-12-29T09:52:10;13.67;;;7.40;;
19951;SDS011;10137;49.406;19.484;2022-12-29T09:54:45;11.10;;;5.70;;
19951;SDS011;10137;49.406;19.484;2022-12-29T09:57:20;14.00;;;6.03;;
19951;SDS011;10137;49.406;19.484;2022-12-29T09:59:52;11.63;;;5.80;;
19951;SDS011;10137;49.406;19.484;2022-12-29T10:02:28;10.33;;;5.13;;
19951;SDS011;10137;49.406;19.484;2022-12-29T10:05:09;9.23;;;5.27;;
19951;SDS011;10137;49.406;19.484;2022-12-29T10:07:48;8.77;;;5.20;;
19951;SDS011;10137;49.406;19.484;2022-12-29T10:10:27;10.10;;;4.80;;
19951;SDS011;10137;49.406;19.484;2022-12-29T10:13:06;8.17;;;5.27;;
19951;SDS011;10137;49.406;19.484;2022-12-29T10:15:54;11.77;;;5.10;;
19951;SDS011;10137;49.406;19.484;2022-12-29T10:21:29;11.07;;;4.93;;
19951;SDS011;10137;49.406;19.484;2022-12-29T10:24:06;10.97;;;5.70;;
19951;SDS011;10137;49.406;19.484;2022-12-29T10:26:40;9.43;;;5.57;;
19951;SDS011;10137;49.406;19.484;2022-12-29T10:29:12;10.23;;;5.17;;
19951;SDS011;10137;49.406;19.484;2022-12-29T10:31:44;10.07;;;5.70;;
19951;SDS011;10137;49.406;19.484;2022-12-29T10:34:18;11.73;;;5.53;;
19951;SDS011;10137;49.406;19.484;2022-12-29T10:36:52;8.97;;;5.40;;
19951;SDS011;10137;49.406;19.484;2022-12-29T10:39:28;9.47;;;4.97;;
19951;SDS011;10137;49.406;19.484;2022-12-29T10:42:03;8.73;;;5.00;;
19951;SDS011;10137;49.406;19.484;2022-12-29T10:44:37;9.43;;;4.57;;
19951;SDS011;10137;49.406;19.484;2022-12-29T10:47:07;7.13;;;5.20;;
19951;SDS011;10137;49.406;19.484;2022-12-29T10:49:42;8.10;;;4.87;;
19951;SDS011;10137;49.406;19.484;2022-12-29T10:52:14;10.33;;;5.57;;
19951;SDS011;10137;49.406;19.484;2022-12-29T10:54:45;7.90;;;4.70;;
19951;SDS011;10137;49.406;19.484;2022-12-29T10:57:22;8.30;;;5.10;;
19951;SDS011;10137;49.406;19.484;2022-12-29T10:59:53;9.63;;;5.03;;
19951;SDS011;10137;49.406;19.484;2022-12-29T11:05:21;12.03;;;5.30;;
19951;SDS011;10137;49.406;19.484;2022-12-29T11:07:56;14.13;;;5.40;;
19951;SDS011;10137;49.406;19.484;2022-12-29T11:10:29;8.87;;;5.20;;
19951;SDS011;10137;49.406;19.484;2022-12-29T11:13:04;7.27;;;4.80;;
19951;SDS011;10137;49.406;19.484;2022-12-29T11:15:40;10.10;;;5.57;;
19951;SDS011;10137;49.406;19.484;2022-12-29T11:18:20;10.10;;;4.93;;
19951;SDS011;10137;49.406;19.484;2022-12-29T11:20:51;8.07;;;5.10;;
19951;SDS011;10137;49.406;19.484;2022-12-29T11:23:26;10.43;;;5.30;;
19951;SDS011;10137;49.406;19.484;2022-12-29T11:26:11;11.77;;;4.70;;
19951;SDS011;10137;49.406;19.484;2022-12-29T11:28:41;9.23;;;5.33;;
19951;SDS011;10137;49.406;19.484;2022-12-29T11:31:12;10.97;;;5.70;;
19951;SDS011;10137;49.406;19.484;2022-12-29T11:33:44;8.60;;;4.90;;
19951;SDS011;10137;49.406;19.484;2022-12-29T11:36:14;10.40;;;5.77;;
19951;SDS011;10137;49.406;19.484;2022-12-29T11:38:47;11.77;;;5.70;;
19951;SDS011;10137;49.406;19.484;2022-12-29T11:41:21;10.90;;;6.00;;
19951;SDS011;10137;49.406;19.484;2022-12-29T11:43:51;10.80;;;6.07;;
19951;SDS011;10137;49.406;19.484;2022-12-29T11:46:22;11.83;;;6.70;;
19951;SDS011;10137;49.406;19.484;2022-12-29T11:48:54;13.73;;;8.20;;
19951;SDS011;10137;49.406;19.484;2022-12-29T11:51:26;11.17;;;6.43;;
19951;SDS011;10137;49.406;19.484;2022-12-29T11:53:58;7.87;;;5.37;;
19951;SDS011;10137;49.406;19.484;2022-12-29T11:56:33;9.67;;;5.93;;
19951;SDS011;10137;49.406;19.484;2022-12-29T12:05:07;13.10;;;6.23;;
19951;SDS011;10137;49.406;19.484;2022-12-29T12:07:40;18.23;;;8.57;;
19951;SDS011;10137;49.406;19.484;2022-12-29T12:10:19;13.30;;;7.70;;
19951;SDS011;10137;49.406;19.484;2022-12-29T12:12:52;12.13;;;7.30;;
19951;SDS011;10137;49.406;19.484;2022-12-29T12:15:27;13.37;;;7.07;;
19951;SDS011;10137;49.406;19.484;2022-12-29T12:18:00;10.50;;;6.30;;
19951;SDS011;10137;49.406;19.484;2022-12-29T12:20:45;14.57;;;6.87;;
19951;SDS011;10137;49.406;19.484;2022-12-29T12:23:38;15.07;;;7.47;;
19951;SDS011;10137;49.406;19.484;2022-12-29T12:26:27;19.10;;;7.20;;
19951;SDS011;10137;49.406;19.484;2022-12-29T12:29:00;16.10;;;7.60;;
19951;SDS011;10137;49.406;19.484;2022-12-29T12:31:41;15.87;;;7.87;;
19951;SDS011;10137;49.406;19.484;2022-12-29T12:34:14;16.03;;;6.80;;
19951;SDS011;10137;49.406;19.484;2022-12-29T12:36:57;10.87;;;6.43;;
19951;SDS011;10137;49.406;19.484;2022-12-29T12:39:35;10.07;;;6.17;;
19951;SDS011;10137;49.406;19.484;2022-12-29T12:42:16;11.50;;;6.73;;
19951;SDS011;10137;49.406;19.484;2022-12-29T12:45:07;13.07;;;7.27;;
19951;SDS011;10137;49.406;19.484;2022-12-29T12:47:55;10.37;;;6.20;;
19951;SDS011;10137;49.406;19.484;2022-12-29T12:50:39;11.90;;;6.93;;
19951;SDS011;10137;49.406;19.484;2022-12-29T12:53:21;12.77;;;7.77;;
19951;SDS011;10137;49.406;19.484;2022-12-29T12:56:06;16.33;;;7.30;;
19951;SDS011;10137;49.406;19.484;2022-12-29T12:58:52;14.77;;;7.03;;
19951;SDS011;10137;49.406;19.484;2022-12-29T13:01:31;13.70;;;6.93;;
19951;SDS011;10137;49.406;19.484;2022-12-29T13:04:12;12.33;;;6.67;;
19951;SDS011;10137;49.406;19.484;2022-12-29T13:07:05;9.53;;;5.93;;
19951;SDS011;10137;49.406;19.484;2022-12-29T13:09:47;13.03;;;6.50;;
19951;SDS011;10137;49.406;19.484;2022-12-29T13:12:24;13.53;;;7.10;;
19951;SDS011;10137;49.406;19.484;2022-12-29T13:15:04;12.17;;;6.40;;
19951;SDS011;10137;49.406;19.484;2022-12-29T13:17:42;11.50;;;6.73;;
19951;SDS011;10137;49.406;19.484;2022-12-29T13:20:18;12.13;;;6.40;;
19951;SDS011;10137;49.406;19.484;2022-12-29T13:22:54;11.43;;;6.03;;
19951;SDS011;10137;49.406;19.484;2022-12-29T13:25:29;13.50;;;6.60;;
19951;SDS011;10137;49.406;19.484;2022-12-29T13:28:06;14.67;;;6.97;;
19951;SDS011;10137;49.406;19.484;2022-12-29T13:30:42;11.10;;;6.70;;
19951;SDS011;10137;49.406;19.484;2022-12-29T13:33:17;12.20;;;7.33;;
19951;SDS011;10137;49.406;19.484;2022-12-29T13:35:57;14.77;;;7.37;;
19951;SDS011;10137;49.406;19.484;2022-12-29T13:38:30;14.17;;;8.07;;
19951;SDS011;10137;49.406;19.484;2022-12-29T13:41:04;13.70;;;7.43;;
19951;SDS011;10137;49.406;19.484;2022-12-29T13:43:35;11.17;;;6.93;;
19951;SDS011;10137;49.406;19.484;2022-12-29T13:46:09;11.63;;;6.40;;
19951;SDS011;10137;49.406;19.484;2022-12-29T13:48:41;11.63;;;6.27;;
19951;SDS011;10137;49.406;19.484;2022-12-29T13:51:13;11.73;;;7.00;;
19951;SDS011;10137;49.406;19.484;2022-12-29T13:53:49;11.97;;;7.00;;
19951;SDS011;10137;49.406;19.484;2022-12-29T13:56:31;11.20;;;6.60;;
19951;SDS011;10137;49.406;19.484;2022-12-29T13:59:04;12.27;;;7.07;;
19951;SDS011;10137;49.406;19.484;2022-12-29T14:01:41;11.27;;;6.60;;
19951;SDS011;10137;49.406;19.484;2022-12-29T14:04:20;11.20;;;6.50;;
19951;SDS011;10137;49.406;19.484;2022-12-29T14:07:00;12.33;;;6.87;;
19951;SDS011;10137;49.406;19.484;2022-12-29T14:09:41;14.67;;;6.63;;
19951;SDS011;10137;49.406;19.484;2022-12-29T14:12:21;10.57;;;6.53;;
19951;SDS011;10137;49.406;19.484;2022-12-29T14:15:02;12.17;;;6.97;;
19951;SDS011;10137;49.406;19.484;2022-12-29T14:17:34;13.43;;;6.63;;
19951;SDS011;10137;49.406;19.484;2022-12-29T14:20:04;14.17;;;7.17;;
19951;SDS011;10137;49.406;19.484;2022-12-29T14:22:54;18.47;;;8.33;;
19951;SDS011;10137;49.406;19.484;2022-12-29T14:28:29;15.80;;;7.57;;
19951;SDS011;10137;49.406;19.484;2022-12-29T14:30:58;12.00;;;7.40;;
19951;SDS011;10137;49.406;19.484;2022-12-29T14:33:29;14.30;;;7.73;;
19951;SDS011;10137;49.406;19.484;2022-12-29T14:38:48;14.17;;;7.97;;
19951;SDS011;10137;49.406;19.484;2022-12-29T14:41:26;13.50;;;8.43;;
19951;SDS011;10137;49.406;19.484;2022-12-29T14:44:01;17.27;;;10.03;;
19951;SDS011;10137;49.406;19.484;2022-12-29T14:46:47;15.50;;;8.47;;
19951;SDS011;10137;49.406;19.484;2022-12-29T14:49:25;20.90;;;11.33;;
19951;SDS011;10137;49.406;19.484;2022-12-29T14:52:03;15.33;;;8.50;;
19951;SDS011;10137;49.406;19.484;2022-12-29T14:54:50;13.27;;;7.13;;
19951;SDS011;10137;49.406;19.484;2022-12-29T14:57:27;17.47;;;8.77;;
19951;SDS011;10137;49.406;19.484;2022-12-29T15:00:12;17.40;;;9.40;;
19951;SDS011;10137;49.406;19.484;2022-12-29T15:02:44;15.77;;;9.10;;
19951;SDS011;10137;49.406;19.484;2022-12-29T15:05:23;15.83;;;7.90;;
19951;SDS011;10137;49.406;19.484;2022-12-29T15:07:59;16.57;;;9.43;;
19951;SDS011;10137;49.406;19.484;2022-12-29T15:10:32;17.67;;;9.33;;
19951;SDS011;10137;49.406;19.484;2022-12-29T15:13:12;18.60;;;9.20;;
19951;SDS011;10137;49.406;19.484;2022-12-29T15:15:45;16.30;;;9.00;;
19951;SDS011;10137;49.406;19.484;2022-12-29T15:18:15;17.10;;;9.23;;
19951;SDS011;10137;49.406;19.484;2022-12-29T15:20:52;17.17;;;9.60;;
19951;SDS011;10137;49.406;19.484;2022-12-29T15:23:23;17.23;;;8.83;;
19951;SDS011;10137;49.406;19.484;2022-12-29T15:25:53;14.43;;;8.23;;
19951;SDS011;10137;49.406;19.484;2022-12-29T15:28:23;16.27;;;8.63;;
19951;SDS011;10137;49.406;19.484;2022-12-29T15:30:53;14.93;;;7.87;;